Terminal Aerodrome Forecast
Issued by NWS

Home | Current Version | Previous Version | Graphics & Text | Print | Product List | Glossary Off
Versions: 1 2 3 4 5 6 7 8 9 10 11 12 13 14 15 16 17 18 19 20 21 22 23 24 25 26 27 28 29 30 31 32

342
FTUS43 KDDC 290520
TAFGCK
TAF
KGCK 290520Z 2906/3006 09006KT P6SM SCT200
     FM290800 12009KT P6SM VCTS SCT070CB SCT250
     FM291400 16011KT P6SM FEW070 SCT200
     FM292200 16017G22KT P6SM VCTS SCT060CB BKN200
     FM300500 17010KT P6SM SCT050=

USA.gov is the U.S. government's official web portal to all federal, state and local government web resources and services.